EXS81CG EGBB-LEGE
Flight info
| Callsign | EXS81CG |
|---|---|
| Flight time | 1h 44m |
| Altitude | 35000 |
| Route | ADMEX Y321 CPT UN859 SOPIL DCT BALAN DCT EVPOK DCT NARAK DCT GAI DCT PPG A27 KANIG |
| Aircraft | B738/M-SDE2E3FGHIRWXY/LB1 |
Departure
| Time | 2026-05-04 08:08 |
|---|---|
| Airport | Birmingham Airport (EGBB) |
Arrival
| Time | 2026-05-04 09:53 |
|---|---|
| Airport | Girona-Costa Brava Airport (LEGE) |
| Time | Latitude | Longitude | Altitude | Speed | Heading |
|---|---|---|---|---|---|
| 2026-05-04 07:43 | 52.44949 | -1.73232 | 322 ft | 0 kts | 146° |
| 2026-05-04 07:59 | 52.44959 | -1.73242 | 323 ft | 4 kts | 146° |
| 2026-05-04 07:59 | 52.44977 | -1.73262 | 320 ft | 4 kts | 160° |
| 2026-05-04 08:00 | 52.44999 | -1.73260 | 320 ft | 4 kts | 217° |
| 2026-05-04 08:00 | 52.45015 | -1.73232 | 320 ft | 2 kts | 236° |
| 2026-05-04 08:00 | 52.45004 | -1.73259 | 320 ft | 4 kts | 236° |
| 2026-05-04 08:02 | 52.45001 | -1.73266 | 320 ft | 0 kts | 236° |
| 2026-05-04 08:02 | 52.45001 | -1.73267 | 320 ft | 1 kts | 236° |
| 2026-05-04 08:03 | 52.44982 | -1.73312 | 320 ft | 10 kts | 236° |
| 2026-05-04 08:03 | 52.44930 | -1.73438 | 323 ft | 14 kts | 236° |
| 2026-05-04 08:03 | 52.44895 | -1.73554 | 323 ft | 10 kts | 253° |
| 2026-05-04 08:03 | 52.44859 | -1.73647 | 323 ft | 10 kts | 236° |
| 2026-05-04 08:04 | 52.44802 | -1.73696 | 323 ft | 9 kts | 195° |
| 2026-05-04 08:04 | 52.44741 | -1.73728 | 321 ft | 9 kts | 198° |
| 2026-05-04 08:04 | 52.44684 | -1.73698 | 322 ft | 9 kts | 144° |
| 2026-05-04 08:04 | 52.44633 | -1.73642 | 320 ft | 9 kts | 147° |
| 2026-05-04 08:05 | 52.44584 | -1.73587 | 323 ft | 8 kts | 145° |
| 2026-05-04 08:05 | 52.44536 | -1.73533 | 323 ft | 8 kts | 146° |
| 2026-05-04 08:05 | 52.44490 | -1.73483 | 321 ft | 8 kts | 146° |
| 2026-05-04 08:05 | 52.44445 | -1.73432 | 321 ft | 8 kts | 146° |
| 2026-05-04 08:06 | 52.44396 | -1.73405 | 323 ft | 7 kts | 187° |
| 2026-05-04 08:06 | 52.44359 | -1.73458 | 323 ft | 7 kts | 232° |
| 2026-05-04 08:06 | 52.44331 | -1.73526 | 323 ft | 7 kts | 237° |
| 2026-05-04 08:06 | 52.44322 | -1.73605 | 323 ft | 8 kts | 285° |
| 2026-05-04 08:08 | 52.47172 | -1.76880 | 1121 ft | 165 kts | 327° |
| 2026-05-04 08:08 | 52.48160 | -1.77985 | 1709 ft | 176 kts | 330° |
| 2026-05-04 08:10 | 52.53386 | -1.69459 | 4805 ft | 248 kts | 103° |
| 2026-05-04 08:11 | 52.52718 | -1.66872 | 5379 ft | 251 kts | 127° |
| 2026-05-04 08:11 | 52.50255 | -1.62715 | 6637 ft | 257 kts | 137° |
| 2026-05-04 08:11 | 52.48962 | -1.60679 | 7277 ft | 259 kts | 137° |
| 2026-05-04 08:12 | 52.47674 | -1.58622 | 7952 ft | 260 kts | 137° |
| 2026-05-04 08:12 | 52.46370 | -1.56530 | 8630 ft | 262 kts | 138° |
| 2026-05-04 08:12 | 52.44907 | -1.54732 | 9291 ft | 263 kts | 150° |
| 2026-05-04 08:12 | 52.43325 | -1.53217 | 9986 ft | 265 kts | 152° |
| 2026-05-04 08:13 | 52.41722 | -1.51704 | 10621 ft | 267 kts | 151° |
| 2026-05-04 08:13 | 52.40108 | -1.50146 | 11293 ft | 269 kts | 151° |
| 2026-05-04 08:13 | 52.38492 | -1.48562 | 11951 ft | 272 kts | 150° |
| 2026-05-04 08:13 | 52.36868 | -1.46961 | 12633 ft | 274 kts | 152° |
| 2026-05-04 08:14 | 52.35111 | -1.45794 | 13305 ft | 274 kts | 170° |
| 2026-05-04 08:14 | 52.33228 | -1.45248 | 14002 ft | 276 kts | 172° |
| 2026-05-04 08:14 | 52.31327 | -1.44744 | 14630 ft | 279 kts | 172° |
| 2026-05-04 08:16 | 52.17468 | -1.40940 | 18567 ft | 318 kts | 172° |
| 2026-05-04 08:16 | 52.15217 | -1.40310 | 18710 ft | 337 kts | 172° |
| 2026-05-04 08:16 | 52.12848 | -1.39646 | 18850 ft | 355 kts | 171° |
| 2026-05-04 08:17 | 52.10347 | -1.38945 | 18971 ft | 373 kts | 171° |
| 2026-05-04 08:17 | 52.07738 | -1.38213 | 19079 ft | 389 kts | 171° |
| 2026-05-04 08:17 | 52.05021 | -1.37450 | 19219 ft | 404 kts | 171° |
| 2026-05-04 08:17 | 52.02212 | -1.36663 | 19504 ft | 413 kts | 171° |
| 2026-05-04 08:19 | 51.82109 | -1.31065 | 23060 ft | 427 kts | 172° |
| 2026-05-04 08:19 | 51.79173 | -1.30251 | 23500 ft | 429 kts | 172° |
| 2026-05-04 08:20 | 51.76218 | -1.29433 | 23869 ft | 432 kts | 172° |
| 2026-05-04 08:20 | 51.73290 | -1.28624 | 24245 ft | 433 kts | 173° |
| 2026-05-04 08:20 | 51.70310 | -1.27800 | 24627 ft | 435 kts | 173° |
| 2026-05-04 08:20 | 51.67336 | -1.26980 | 24996 ft | 436 kts | 173° |
| 2026-05-04 08:21 | 51.64289 | -1.26141 | 25365 ft | 437 kts | 173° |
| 2026-05-04 08:21 | 51.61327 | -1.25326 | 25707 ft | 439 kts | 173° |
| 2026-05-04 08:21 | 51.58314 | -1.24498 | 26065 ft | 440 kts | 173° |
| 2026-05-04 08:21 | 51.55293 | -1.23669 | 26431 ft | 440 kts | 173° |
| 2026-05-04 08:22 | 51.52284 | -1.22844 | 26875 ft | 439 kts | 173° |
| 2026-05-04 08:22 | 51.49295 | -1.21818 | 27418 ft | 438 kts | 167° |
| 2026-05-04 08:24 | 51.30166 | -1.07983 | 30655 ft | 427 kts | 159° |
| 2026-05-04 08:24 | 51.27454 | -1.06004 | 30866 ft | 430 kts | 159° |
| 2026-05-04 08:24 | 51.24739 | -1.04022 | 31179 ft | 429 kts | 159° |
| 2026-05-04 08:24 | 51.22023 | -1.02044 | 31512 ft | 429 kts | 159° |
| 2026-05-04 08:25 | 51.19304 | -1.00068 | 31784 ft | 430 kts | 159° |
| 2026-05-04 08:25 | 51.16577 | -0.98090 | 32033 ft | 431 kts | 159° |
| 2026-05-04 08:25 | 51.13854 | -0.96116 | 32326 ft | 431 kts | 158° |
| 2026-05-04 08:25 | 51.11120 | -0.94136 | 32632 ft | 431 kts | 158° |
| 2026-05-04 08:26 | 51.08393 | -0.92164 | 32889 ft | 432 kts | 158° |
| 2026-05-04 08:27 | 50.89229 | -0.78370 | 34652 ft | 433 kts | 158° |
| 2026-05-04 08:28 | 50.86483 | -0.76403 | 34880 ft | 434 kts | 158° |
| 2026-05-04 08:28 | 50.83817 | -0.74137 | 35073 ft | 437 kts | 150° |
| 2026-05-04 08:28 | 50.81258 | -0.71548 | 35282 ft | 437 kts | 149° |
| 2026-05-04 08:28 | 50.78679 | -0.68881 | 35487 ft | 437 kts | 149° |
| 2026-05-04 08:29 | 50.76136 | -0.66244 | 35677 ft | 438 kts | 149° |
| 2026-05-04 08:29 | 50.73621 | -0.63648 | 35881 ft | 438 kts | 149° |
| 2026-05-04 08:29 | 50.71072 | -0.61034 | 36068 ft | 438 kts | 149° |
| 2026-05-04 08:31 | 50.53086 | -0.42854 | 37004 ft | 442 kts | 150° |
| 2026-05-04 08:33 | 50.35205 | -0.24956 | 37008 ft | 431 kts | 150° |
| 2026-05-04 08:33 | 50.32675 | -0.22438 | 37006 ft | 430 kts | 150° |
| 2026-05-04 08:35 | 50.12476 | -0.02440 | 37015 ft | 435 kts | 151° |
| 2026-05-04 08:35 | 50.06989 | 0.01350 | 37002 ft | 430 kts | 168° |
| 2026-05-04 08:37 | 49.86502 | 0.09211 | 37004 ft | 435 kts | 168° |
| 2026-05-04 08:38 | 49.80633 | 0.11504 | 36999 ft | 435 kts | 168° |
| 2026-05-04 08:38 | 49.75755 | 0.13405 | 36993 ft | 434 kts | 168° |
| 2026-05-04 08:40 | 49.52527 | 0.22684 | 36987 ft | 429 kts | 168° |
| 2026-05-04 08:41 | 49.46764 | 0.25010 | 36988 ft | 427 kts | 168° |
| 2026-05-04 08:41 | 49.41069 | 0.27301 | 36987 ft | 425 kts | 168° |
| 2026-05-04 08:42 | 49.35356 | 0.29595 | 36992 ft | 424 kts | 168° |
| 2026-05-04 08:42 | 49.29667 | 0.31881 | 36996 ft | 423 kts | 167° |
| 2026-05-04 08:43 | 49.23985 | 0.34264 | 36992 ft | 423 kts | 167° |
| 2026-05-04 08:43 | 49.18309 | 0.36667 | 36988 ft | 423 kts | 167° |
| 2026-05-04 08:44 | 49.12624 | 0.39059 | 36992 ft | 424 kts | 167° |
| 2026-05-04 08:46 | 48.89735 | 0.48597 | 36985 ft | 428 kts | 167° |
| 2026-05-04 08:46 | 48.84023 | 0.50964 | 36982 ft | 429 kts | 167° |
| 2026-05-04 08:47 | 48.78276 | 0.53335 | 36980 ft | 428 kts | 167° |
| 2026-05-04 08:47 | 48.72511 | 0.55605 | 36978 ft | 428 kts | 168° |
| 2026-05-04 08:48 | 48.66731 | 0.57845 | 36974 ft | 428 kts | 168° |
| 2026-05-04 08:48 | 48.60985 | 0.60081 | 36977 ft | 427 kts | 168° |
| 2026-05-04 08:49 | 48.55235 | 0.62320 | 36967 ft | 426 kts | 168° |
| 2026-05-04 08:50 | 48.35310 | 0.70356 | 36970 ft | 421 kts | 167° |
| 2026-05-04 08:51 | 48.29651 | 0.72644 | 36969 ft | 420 kts | 167° |
| 2026-05-04 08:51 | 48.24008 | 0.74916 | 36970 ft | 419 kts | 168° |
| 2026-05-04 08:52 | 48.18371 | 0.77140 | 36966 ft | 419 kts | 168° |
| 2026-05-04 08:52 | 48.12736 | 0.79351 | 36964 ft | 418 kts | 168° |
| 2026-05-04 08:54 | 47.90257 | 0.88147 | 36962 ft | 418 kts | 168° |
| 2026-05-04 08:55 | 47.84624 | 0.90339 | 36974 ft | 419 kts | 168° |
| 2026-05-04 08:55 | 47.78971 | 0.92531 | 36979 ft | 422 kts | 168° |
| 2026-05-04 09:01 | 47.19292 | 1.05869 | 36964 ft | 411 kts | 183° |
| 2026-05-04 09:01 | 47.13570 | 1.05743 | 36963 ft | 412 kts | 183° |
| 2026-05-04 09:02 | 47.07833 | 1.05616 | 36969 ft | 413 kts | 183° |
| 2026-05-04 09:02 | 47.02082 | 1.05487 | 36962 ft | 414 kts | 183° |
| 2026-05-04 09:03 | 46.96315 | 1.05258 | 36966 ft | 414 kts | 184° |
| 2026-05-04 09:03 | 46.90553 | 1.04988 | 36964 ft | 415 kts | 184° |
| 2026-05-04 09:04 | 46.84778 | 1.04728 | 36965 ft | 415 kts | 184° |
| 2026-05-04 09:04 | 46.79003 | 1.04476 | 36963 ft | 416 kts | 184° |
| 2026-05-04 09:05 | 46.73222 | 1.04228 | 36963 ft | 415 kts | 184° |
| 2026-05-04 09:05 | 46.67453 | 1.03980 | 36966 ft | 415 kts | 184° |
| 2026-05-04 09:06 | 46.61670 | 1.03731 | 36960 ft | 415 kts | 184° |
| 2026-05-04 09:07 | 46.41719 | 1.06548 | 36956 ft | 416 kts | 170° |
| 2026-05-04 09:08 | 46.38907 | 1.07514 | 36961 ft | 415 kts | 170° |
| 2026-05-04 09:08 | 46.33288 | 1.09416 | 36954 ft | 414 kts | 170° |
| 2026-05-04 09:09 | 46.27688 | 1.11287 | 36970 ft | 413 kts | 170° |
| 2026-05-04 09:09 | 46.22084 | 1.13148 | 36966 ft | 413 kts | 171° |
| 2026-05-04 09:10 | 46.16480 | 1.15006 | 36967 ft | 413 kts | 171° |
| 2026-05-04 09:10 | 46.10915 | 1.16846 | 36956 ft | 413 kts | 171° |
| 2026-05-04 09:11 | 46.05303 | 1.18699 | 36969 ft | 414 kts | 171° |
| 2026-05-04 09:11 | 45.99688 | 1.20549 | 36970 ft | 414 kts | 171° |
| 2026-05-04 09:12 | 45.94059 | 1.22400 | 36966 ft | 415 kts | 171° |
| 2026-05-04 09:14 | 45.71452 | 1.29796 | 36960 ft | 419 kts | 171° |
| 2026-05-04 09:14 | 45.65775 | 1.31644 | 36962 ft | 418 kts | 171° |
| 2026-05-04 09:15 | 45.60089 | 1.33490 | 36967 ft | 420 kts | 171° |
| 2026-05-04 09:15 | 45.54389 | 1.35338 | 36972 ft | 420 kts | 171° |
| 2026-05-04 09:17 | 45.28886 | 1.43559 | 36969 ft | 413 kts | 171° |
| 2026-05-04 09:18 | 45.23289 | 1.45354 | 36957 ft | 412 kts | 171° |
| 2026-05-04 09:18 | 45.17703 | 1.47141 | 36968 ft | 411 kts | 171° |
| 2026-05-04 09:19 | 45.12139 | 1.48917 | 36961 ft | 411 kts | 171° |
| 2026-05-04 09:19 | 45.06555 | 1.50696 | 36966 ft | 411 kts | 171° |
| 2026-05-04 09:20 | 45.00967 | 1.52473 | 36969 ft | 412 kts | 172° |
| 2026-05-04 09:20 | 44.95365 | 1.54251 | 36968 ft | 413 kts | 172° |
| 2026-05-04 09:21 | 44.89742 | 1.56032 | 36969 ft | 415 kts | 172° |
| 2026-05-04 09:21 | 44.84103 | 1.57815 | 36972 ft | 416 kts | 172° |
| 2026-05-04 09:22 | 44.78483 | 1.59588 | 36974 ft | 417 kts | 172° |
| 2026-05-04 09:22 | 44.72819 | 1.61372 | 36955 ft | 417 kts | 172° |
| 2026-05-04 09:23 | 44.67163 | 1.63150 | 36968 ft | 417 kts | 172° |
| 2026-05-04 09:23 | 44.61496 | 1.64928 | 36962 ft | 416 kts | 172° |
| 2026-05-04 09:25 | 44.38941 | 1.71969 | 36960 ft | 413 kts | 172° |
| 2026-05-04 09:26 | 44.33334 | 1.73710 | 36966 ft | 412 kts | 172° |
| 2026-05-04 09:26 | 44.27736 | 1.75367 | 36969 ft | 410 kts | 175° |
| 2026-05-04 09:27 | 44.22113 | 1.76606 | 36967 ft | 409 kts | 176° |
| 2026-05-04 09:27 | 44.16486 | 1.77786 | 36973 ft | 409 kts | 176° |
| 2026-05-04 09:28 | 44.11813 | 1.78798 | 36974 ft | 409 kts | 176° |
| 2026-05-04 09:28 | 44.06181 | 1.80036 | 36971 ft | 410 kts | 176° |
| 2026-05-04 09:29 | 44.00548 | 1.81272 | 36970 ft | 410 kts | 176° |
| 2026-05-04 09:29 | 43.94977 | 1.83219 | 36977 ft | 419 kts | 163° |
| 2026-05-04 09:30 | 43.89811 | 1.87180 | 36983 ft | 428 kts | 154° |
| 2026-05-04 09:30 | 43.84807 | 1.91676 | 36971 ft | 430 kts | 153° |
| 2026-05-04 09:31 | 43.79779 | 1.96179 | 36979 ft | 430 kts | 154° |
| 2026-05-04 09:31 | 43.74737 | 2.00643 | 36949 ft | 431 kts | 154° |
| 2026-05-04 09:32 | 43.72175 | 2.02895 | 36371 ft | 438 kts | 154° |
| 2026-05-04 09:32 | 43.69618 | 2.05142 | 35892 ft | 436 kts | 154° |
| 2026-05-04 09:34 | 43.51916 | 2.20628 | 32352 ft | 437 kts | 154° |
| 2026-05-04 09:34 | 43.49331 | 2.22876 | 31838 ft | 439 kts | 153° |
| 2026-05-04 09:34 | 43.46747 | 2.25126 | 31330 ft | 439 kts | 153° |
| 2026-05-04 09:34 | 43.44168 | 2.27371 | 30847 ft | 440 kts | 153° |
| 2026-05-04 09:35 | 43.41580 | 2.29621 | 30351 ft | 441 kts | 153° |
| 2026-05-04 09:35 | 43.38986 | 2.31874 | 29826 ft | 441 kts | 153° |
| 2026-05-04 09:35 | 43.36392 | 2.34125 | 29256 ft | 440 kts | 153° |
| 2026-05-04 09:35 | 43.33807 | 2.36365 | 28701 ft | 440 kts | 153° |
| 2026-05-04 09:37 | 43.15368 | 2.52267 | 25102 ft | 451 kts | 153° |
| 2026-05-04 09:37 | 43.12708 | 2.54553 | 24497 ft | 450 kts | 153° |
| 2026-05-04 09:38 | 43.10079 | 2.56812 | 23906 ft | 442 kts | 153° |
| 2026-05-04 09:38 | 43.07494 | 2.59032 | 23279 ft | 435 kts | 152° |
| 2026-05-04 09:38 | 43.04943 | 2.61219 | 22591 ft | 430 kts | 153° |
| 2026-05-04 09:38 | 43.02424 | 2.63374 | 21921 ft | 425 kts | 152° |
| 2026-05-04 09:39 | 42.99929 | 2.65505 | 21274 ft | 421 kts | 152° |
| 2026-05-04 09:39 | 42.97459 | 2.67613 | 20638 ft | 418 kts | 152° |
| 2026-05-04 09:39 | 42.94991 | 2.69717 | 20033 ft | 416 kts | 152° |
| 2026-05-04 09:39 | 42.92546 | 2.71800 | 19422 ft | 414 kts | 152° |
| 2026-05-04 09:40 | 42.90108 | 2.73875 | 18825 ft | 413 kts | 152° |
| 2026-05-04 09:40 | 42.87673 | 2.75946 | 18240 ft | 411 kts | 151° |
| 2026-05-04 09:40 | 42.85251 | 2.78004 | 17572 ft | 409 kts | 151° |
| 2026-05-04 09:40 | 42.82839 | 2.80053 | 16912 ft | 407 kts | 151° |
| 2026-05-04 09:41 | 42.80447 | 2.82084 | 16275 ft | 403 kts | 150° |
| 2026-05-04 09:42 | 42.63124 | 2.91819 | 11914 ft | 374 kts | 164° |
| 2026-05-04 09:43 | 42.60642 | 2.92879 | 11295 ft | 371 kts | 164° |
| 2026-05-04 09:43 | 42.58187 | 2.93932 | 10661 ft | 369 kts | 164° |
| 2026-05-04 09:43 | 42.55757 | 2.94975 | 10174 ft | 363 kts | 164° |
| 2026-05-04 09:43 | 42.53375 | 2.95998 | 9679 ft | 357 kts | 164° |
| 2026-05-04 09:44 | 42.51019 | 2.97007 | 9147 ft | 352 kts | 164° |
| 2026-05-04 09:44 | 42.48673 | 2.97838 | 8610 ft | 347 kts | 175° |
| 2026-05-04 09:44 | 42.46312 | 2.97709 | 8124 ft | 345 kts | 192° |
| 2026-05-04 09:46 | 42.30327 | 2.91461 | 5989 ft | 339 kts | 197° |
| 2026-05-04 09:46 | 42.28052 | 2.90544 | 5600 ft | 342 kts | 198° |
| 2026-05-04 09:46 | 42.25791 | 2.89616 | 5220 ft | 339 kts | 198° |
| 2026-05-04 09:47 | 42.23564 | 2.88748 | 5018 ft | 326 kts | 197° |
| 2026-05-04 09:47 | 42.21429 | 2.87939 | 4989 ft | 309 kts | 197° |
| 2026-05-04 09:49 | 42.08834 | 2.83165 | 3973 ft | 251 kts | 197° |
| 2026-05-04 09:49 | 42.07159 | 2.82529 | 3669 ft | 249 kts | 198° |
| 2026-05-04 09:49 | 42.05480 | 2.81893 | 3313 ft | 243 kts | 197° |
| 2026-05-04 09:51 | 41.97255 | 2.78769 | 1718 ft | 168 kts | 196° |
| 2026-05-04 09:51 | 41.96156 | 2.78354 | 1450 ft | 158 kts | 196° |
| 2026-05-04 09:51 | 41.95164 | 2.77977 | 1269 ft | 144 kts | 197° |
| 2026-05-04 09:51 | 41.94227 | 2.77640 | 1044 ft | 137 kts | 194° |
| 2026-05-04 09:52 | 41.93318 | 2.77290 | 873 ft | 139 kts | 196° |
| 2026-05-04 09:52 | 41.92374 | 2.76921 | 680 ft | 138 kts | 195° |
| 2026-05-04 09:52 | 41.91455 | 2.76569 | 490 ft | 136 kts | 194° |
| 2026-05-04 09:52 | 41.90621 | 2.76256 | 458 ft | 107 kts | 196° |
| 2026-05-04 09:53 | 41.90053 | 2.76041 | 437 ft | 65 kts | 195° |
| 2026-05-04 09:53 | 41.89703 | 2.75908 | 413 ft | 48 kts | 196° |
| 2026-05-04 09:53 | 41.89523 | 2.75906 | 411 ft | 18 kts | 107° |
| 2026-05-04 09:53 | 41.89574 | 2.76058 | 411 ft | 18 kts | 59° |
| 2026-05-04 09:54 | 41.89628 | 2.76113 | 413 ft | 17 kts | 22° |
| 2026-05-04 09:54 | 41.89685 | 2.76134 | 416 ft | 8 kts | 15° |
| 2026-05-04 09:54 | 41.89735 | 2.76152 | 418 ft | 7 kts | 15° |
| 2026-05-04 09:54 | 41.89782 | 2.76168 | 418 ft | 7 kts | 14° |
| 2026-05-04 09:55 | 41.89829 | 2.76185 | 419 ft | 7 kts | 17° |
| 2026-05-04 09:55 | 41.89875 | 2.76203 | 421 ft | 7 kts | 15° |
| 2026-05-04 09:55 | 41.89914 | 2.76233 | 421 ft | 7 kts | 65° |
| 2026-05-04 09:55 | 41.89901 | 2.76293 | 414 ft | 7 kts | 107° |
| 2026-05-04 09:56 | 41.89889 | 2.76353 | 420 ft | 7 kts | 105° |
| 2026-05-04 09:56 | 41.89859 | 2.76394 | 423 ft | 6 kts | 163° |
| 2026-05-04 09:56 | 41.89829 | 2.76394 | 414 ft | 2 kts | 160° |
| 2026-05-04 09:56 | 41.89823 | 2.76412 | 420 ft | 2 kts | 107° |
| 2026-05-04 09:57 | 41.89819 | 2.76432 | 423 ft | 2 kts | 105° |
| 2026-05-04 09:57 | 41.89815 | 2.76451 | 423 ft | 2 kts | 105° |
| 2026-05-04 09:57 | 41.89813 | 2.76463 | 418 ft | 0 kts | 105° |